createdAt,value
2022-10-06T00:01:05.242Z,3.13
2022-10-06T00:03:33.321Z,3.30
2022-10-06T00:06:01.841Z,2.40
2022-10-06T00:08:31.473Z,2.13
2022-10-06T00:10:59.671Z,2.60
2022-10-06T00:13:28.266Z,3.13
2022-10-06T00:15:58.004Z,2.77
2022-10-06T00:18:26.296Z,2.70
2022-10-06T00:20:57.592Z,2.20
2022-10-06T00:23:25.771Z,2.40
2022-10-06T00:25:53.829Z,2.20
2022-10-06T00:28:21.915Z,2.40
2022-10-06T00:30:51.267Z,2.13
2022-10-06T00:33:20.725Z,2.30
2022-10-06T00:35:49.369Z,2.03
2022-10-06T00:38:18.055Z,2.07
2022-10-06T00:40:47.025Z,2.10
2022-10-06T00:43:33.299Z,2.10
2022-10-06T00:46:01.310Z,2.10
2022-10-06T00:48:32.326Z,2.00
2022-10-06T00:51:00.903Z,2.10
2022-10-06T00:53:30.154Z,2.40
2022-10-06T00:55:58.214Z,2.00
2022-10-06T00:58:26.669Z,2.53
2022-10-06T01:00:56.013Z,2.03
2022-10-06T01:03:26.010Z,2.20
2022-10-06T01:05:56.193Z,2.30
2022-10-06T01:08:24.604Z,3.30
2022-10-06T01:10:52.613Z,2.87
2022-10-06T01:13:20.736Z,3.00
2022-10-06T01:15:52.695Z,3.27
2022-10-06T01:18:22.093Z,2.87
2022-10-06T01:20:52.301Z,2.60
2022-10-06T01:23:22.276Z,3.00
2022-10-06T01:25:50.440Z,3.00
2022-10-06T01:28:18.474Z,3.13
2022-10-06T01:30:51.184Z,3.20
2022-10-06T01:33:19.247Z,2.70
2022-10-06T01:35:49.402Z,3.33
2022-10-06T01:38:17.816Z,3.43
2022-10-06T01:40:47.495Z,3.27
2022-10-06T01:43:15.470Z,3.37
2022-10-06T01:45:43.994Z,2.67
2022-10-06T01:48:12.264Z,3.43
2022-10-06T01:50:41.909Z,3.07
2022-10-06T01:53:10.145Z,3.60
2022-10-06T01:55:38.786Z,3.67
2022-10-06T01:58:08.724Z,3.60
2022-10-06T02:00:37.233Z,3.43
2022-10-06T02:03:05.884Z,3.37
2022-10-06T02:05:34.108Z,3.70
2022-10-06T02:08:02.628Z,4.17
2022-10-06T02:10:30.970Z,3.27
2022-10-06T02:12:58.972Z,3.53
2022-10-06T02:15:28.691Z,3.30
2022-10-06T02:17:57.117Z,3.57
2022-10-06T02:20:26.014Z,3.40
2022-10-06T02:22:53.973Z,3.23
2022-10-06T02:25:22.006Z,3.10
2022-10-06T02:27:49.971Z,3.17
2022-10-06T02:30:17.940Z,2.90
2022-10-06T02:32:47.859Z,2.90
2022-10-06T02:35:15.856Z,2.70
2022-10-06T02:37:43.988Z,2.50
2022-10-06T02:40:12.033Z,2.70
2022-10-06T02:42:40.288Z,2.43
2022-10-06T02:45:08.918Z,2.70
2022-10-06T02:47:38.127Z,2.90
2022-10-06T02:50:08.627Z,2.70
2022-10-06T02:52:38.215Z,2.70
2022-10-06T02:55:07.012Z,2.70
2022-10-06T02:57:35.233Z,2.83
2022-10-06T03:00:03.240Z,2.30
2022-10-06T03:02:31.463Z,2.63
2022-10-06T03:04:59.587Z,2.30
2022-10-06T03:07:29.025Z,2.43
2022-10-06T03:09:57.049Z,2.80
2022-10-06T03:12:25.136Z,2.80
2022-10-06T03:14:53.103Z,2.70
2022-10-06T03:17:21.183Z,2.90
2022-10-06T03:19:49.345Z,2.80
2022-10-06T03:22:17.389Z,2.83
2022-10-06T03:24:46.834Z,2.87
2022-10-06T03:27:14.884Z,2.90
2022-10-06T03:29:42.907Z,2.43
2022-10-06T03:32:10.985Z,2.33
2022-10-06T03:34:39.000Z,2.63
2022-10-06T03:37:07.197Z,2.80
2022-10-06T03:39:35.243Z,2.63
2022-10-06T03:42:04.798Z,3.10
2022-10-06T03:44:35.180Z,3.50
2022-10-06T03:47:03.295Z,2.50
2022-10-06T03:49:31.349Z,3.10
2022-10-06T03:51:59.347Z,2.70
2022-10-06T03:54:27.350Z,2.53
2022-10-06T03:56:55.710Z,3.00
2022-10-06T03:59:25.097Z,4.20
2022-10-06T04:01:53.711Z,4.73
2022-10-06T04:04:21.791Z,3.00
2022-10-06T04:06:49.761Z,3.20
2022-10-06T04:09:17.983Z,2.93
2022-10-06T04:11:46.308Z,3.00
2022-10-06T04:14:15.562Z,3.17
2022-10-06T04:16:45.881Z,3.20
2022-10-06T04:19:14.343Z,3.00
2022-10-06T04:21:43.775Z,3.20
2022-10-06T04:24:12.110Z,3.17
2022-10-06T04:26:41.645Z,2.70
2022-10-06T04:29:09.628Z,3.20
2022-10-06T04:31:39.311Z,2.87
2022-10-06T04:34:09.173Z,2.93
2022-10-06T04:36:39.885Z,2.40
2022-10-06T04:39:10.925Z,2.63
2022-10-06T04:41:40.080Z,2.70
2022-10-06T04:44:09.088Z,2.70
2022-10-06T04:46:43.094Z,2.70
2022-10-06T04:49:18.943Z,2.70
2022-10-06T04:51:48.631Z,3.00
2022-10-06T04:54:16.605Z,2.93
2022-10-06T04:56:44.646Z,2.77
2022-10-06T04:59:12.626Z,3.07
2022-10-06T05:01:40.869Z,2.83
2022-10-06T05:04:08.909Z,2.80
2022-10-06T05:06:39.177Z,2.80
2022-10-06T05:09:08.190Z,2.40
2022-10-06T05:11:36.324Z,2.67
2022-10-06T05:14:04.464Z,3.20
2022-10-06T05:16:33.205Z,2.70
2022-10-06T05:19:02.110Z,2.77
2022-10-06T05:21:35.977Z,2.83
2022-10-06T05:24:05.808Z,3.40
2022-10-06T05:26:34.990Z,3.23
2022-10-06T05:29:03.448Z,3.10
2022-10-06T05:31:33.236Z,3.43
2022-10-06T05:34:01.443Z,2.73
2022-10-06T05:36:31.320Z,2.70
2022-10-06T05:39:00.318Z,2.93
2022-10-06T05:41:30.627Z,3.43
2022-10-06T05:43:59.599Z,2.70
2022-10-06T05:46:28.712Z,2.43
2022-10-06T05:48:58.139Z,2.43
2022-10-06T05:51:30.374Z,2.70
2022-10-06T05:53:59.467Z,2.77
2022-10-06T05:56:28.127Z,2.83
2022-10-06T05:58:58.214Z,3.13
2022-10-06T06:01:27.233Z,7.50
2022-10-06T06:03:56.082Z,3.30
2022-10-06T06:06:24.745Z,3.10
2022-10-06T06:08:53.951Z,3.93
2022-10-06T06:11:25.667Z,4.90
2022-10-06T06:13:53.986Z,3.73
2022-10-06T06:16:22.519Z,3.33
2022-10-06T06:18:50.582Z,3.43
2022-10-06T06:21:18.638Z,3.17
2022-10-06T06:23:47.375Z,3.07
2022-10-06T06:26:15.931Z,3.47
2022-10-06T06:28:46.591Z,3.40
2022-10-06T06:31:19.924Z,3.50
2022-10-06T06:33:51.914Z,3.23
2022-10-06T06:36:20.479Z,3.63
2022-10-06T06:38:49.869Z,3.63
2022-10-06T06:41:18.652Z,3.90
2022-10-06T06:43:47.004Z,3.97
2022-10-06T06:46:16.319Z,3.80
2022-10-06T06:48:45.574Z,3.90
2022-10-06T06:51:15.516Z,4.10
2022-10-06T06:53:43.550Z,4.03
2022-10-06T06:56:11.684Z,3.90
2022-10-06T06:58:39.714Z,4.47
2022-10-06T07:01:08.893Z,4.07
2022-10-06T07:03:56.487Z,4.40
2022-10-06T07:06:28.951Z,4.17
2022-10-06T07:08:58.065Z,3.77
2022-10-06T07:11:27.028Z,3.83
2022-10-06T07:13:55.658Z,3.43
2022-10-06T07:16:41.505Z,3.17
2022-10-06T07:19:28.187Z,3.20
2022-10-06T07:22:15.332Z,3.63
2022-10-06T07:25:01.010Z,3.00
2022-10-06T07:27:29.510Z,2.63
2022-10-06T07:29:57.729Z,2.27
2022-10-06T07:32:26.961Z,2.40
2022-10-06T07:34:55.532Z,2.07
2022-10-06T07:37:25.754Z,2.30
2022-10-06T07:39:53.833Z,2.40
2022-10-06T07:42:21.902Z,2.60
2022-10-06T07:45:10.012Z,2.60
2022-10-06T07:47:39.165Z,2.20
2022-10-06T07:50:07.610Z,2.23
2022-10-06T07:52:39.519Z,2.00
2022-10-06T07:55:08.293Z,2.40
2022-10-06T07:57:36.300Z,2.47
2022-10-06T08:00:05.739Z,2.30
2022-10-06T08:02:35.805Z,2.97
2022-10-06T08:05:04.663Z,2.63
2022-10-06T08:07:32.850Z,2.77
2022-10-06T08:10:02.326Z,2.73
2022-10-06T08:12:38.031Z,2.27
2022-10-06T08:15:07.621Z,2.07
2022-10-06T08:17:36.888Z,2.37
2022-10-06T08:20:05.213Z,2.70
2022-10-06T08:22:33.480Z,2.77
2022-10-06T08:25:07.039Z,2.90
2022-10-06T08:27:35.765Z,2.93
2022-10-06T08:30:04.200Z,2.20
2022-10-06T08:32:32.408Z,2.50
2022-10-06T08:35:02.516Z,2.83
2022-10-06T08:37:30.537Z,2.33
2022-10-06T08:39:58.773Z,2.00
2022-10-06T08:42:32.154Z,2.30
2022-10-06T08:45:01.676Z,2.43
2022-10-06T08:47:33.950Z,2.77
2022-10-06T08:50:02.357Z,2.53
2022-10-06T08:52:38.261Z,2.80
2022-10-06T08:55:08.962Z,2.40
2022-10-06T08:57:44.089Z,2.47
2022-10-06T09:00:14.245Z,2.87
2022-10-06T09:02:45.813Z,2.70
2022-10-06T09:05:16.277Z,2.00
2022-10-06T09:07:48.436Z,2.60
2022-10-06T09:10:23.556Z,2.73
2022-10-06T09:12:56.402Z,2.67
2022-10-06T09:15:30.263Z,2.57
2022-10-06T09:18:01.124Z,3.00
2022-10-06T09:20:32.117Z,2.83
2022-10-06T09:23:01.894Z,3.23
2022-10-06T09:25:31.251Z,2.60
2022-10-06T09:28:01.453Z,2.60
2022-10-06T09:30:29.494Z,2.83
2022-10-06T09:33:00.272Z,2.83
2022-10-06T09:35:29.146Z,2.80
2022-10-06T09:37:58.341Z,3.20
2022-10-06T09:40:36.761Z,2.57
2022-10-06T09:43:16.962Z,2.67
2022-10-06T09:45:45.046Z,2.67
2022-10-06T09:48:14.212Z,2.77
2022-10-06T09:50:42.826Z,2.83
2022-10-06T09:53:12.285Z,3.07
2022-10-06T09:55:46.002Z,2.93
2022-10-06T09:58:20.603Z,2.90
2022-10-06T10:00:49.813Z,3.20
2022-10-06T10:03:18.362Z,2.73
2022-10-06T10:05:48.436Z,2.70
2022-10-06T10:08:22.372Z,2.47
2022-10-06T10:10:50.836Z,2.50
2022-10-06T10:13:22.122Z,3.13
2022-10-06T10:15:53.743Z,3.10
2022-10-06T10:18:26.901Z,2.90
2022-10-06T10:20:57.720Z,2.33
2022-10-06T10:23:31.080Z,2.57
2022-10-06T10:26:18.757Z,2.40
2022-10-06T10:29:08.127Z,2.30
2022-10-06T10:31:43.897Z,2.20
2022-10-06T10:34:26.192Z,2.80
2022-10-06T10:36:55.865Z,2.83
2022-10-06T10:39:31.257Z,2.30
2022-10-06T10:42:01.102Z,2.43
2022-10-06T10:44:31.079Z,2.93
2022-10-06T10:47:07.285Z,2.93
2022-10-06T10:49:36.337Z,2.50
2022-10-06T10:52:08.670Z,2.37
2022-10-06T10:54:39.567Z,2.80
2022-10-06T10:57:11.488Z,2.37
2022-10-06T10:59:42.434Z,2.60
2022-10-06T11:02:14.026Z,2.20
2022-10-06T11:04:43.427Z,2.40
2022-10-06T11:07:15.471Z,2.50
2022-10-06T11:09:49.499Z,2.30
2022-10-06T11:12:21.133Z,2.07
2022-10-06T11:14:55.042Z,2.10
2022-10-06T11:17:47.253Z,2.60
2022-10-06T11:20:24.594Z,1.87
2022-10-06T11:22:56.217Z,2.27
2022-10-06T11:25:34.190Z,2.03
2022-10-06T11:28:06.882Z,2.27
2022-10-06T11:30:37.900Z,2.87
2022-10-06T11:33:11.307Z,2.00
2022-10-06T11:35:42.878Z,2.30
2022-10-06T11:38:14.227Z,2.47
2022-10-06T11:40:57.128Z,2.57
2022-10-06T11:43:31.332Z,2.43
2022-10-06T11:46:03.419Z,2.50
2022-10-06T11:48:32.213Z,2.13
2022-10-06T11:51:28.948Z,2.43
2022-10-06T11:53:56.977Z,2.50
2022-10-06T11:56:39.777Z,2.20
2022-10-06T11:59:11.429Z,2.67
2022-10-06T12:01:52.598Z,2.27
2022-10-06T12:04:24.490Z,2.53
2022-10-06T12:06:55.898Z,2.67
2022-10-06T12:09:34.120Z,2.00
2022-10-06T12:12:03.514Z,2.63
2022-10-06T12:17:28.999Z,2.20
2022-10-06T12:20:00.972Z,2.70
2022-10-06T12:22:32.835Z,2.00
2022-10-06T12:25:05.366Z,2.40
2022-10-06T12:27:38.531Z,2.40
2022-10-06T12:30:16.227Z,2.30
2022-10-06T12:32:47.852Z,2.40
2022-10-06T12:35:24.911Z,2.13
2022-10-06T12:37:55.133Z,2.40
2022-10-06T12:40:42.170Z,2.30
2022-10-06T12:43:42.988Z,2.90
2022-10-06T12:46:16.539Z,2.23
2022-10-06T12:48:51.907Z,2.20
2022-10-06T12:51:26.001Z,2.13
2022-10-06T12:53:59.108Z,2.27
2022-10-06T12:56:29.292Z,2.00
2022-10-06T12:58:57.495Z,2.17
2022-10-06T13:01:26.420Z,2.23
2022-10-06T13:03:55.367Z,2.43
2022-10-06T13:06:24.758Z,2.33
2022-10-06T13:09:08.344Z,2.47
2022-10-06T13:11:36.687Z,2.70
2022-10-06T13:14:11.934Z,2.63
2022-10-06T13:16:41.074Z,2.07
2022-10-06T13:19:16.277Z,3.50
2022-10-06T13:21:44.290Z,2.50
2022-10-06T13:24:15.151Z,2.17
2022-10-06T13:26:43.268Z,2.27
2022-10-06T13:29:18.111Z,1.83
2022-10-06T13:31:51.883Z,1.70
2022-10-06T13:34:24.176Z,2.13
2022-10-06T13:36:52.824Z,1.77
2022-10-06T13:39:22.915Z,2.00
2022-10-06T13:41:52.195Z,1.97
2022-10-06T13:44:32.160Z,2.30
2022-10-06T13:47:01.989Z,2.67
2022-10-06T13:49:32.070Z,2.13
2022-10-06T13:52:01.877Z,2.27
2022-10-06T13:54:34.404Z,1.90
2022-10-06T13:57:02.457Z,2.00
2022-10-06T13:59:34.862Z,2.13
2022-10-06T14:02:15.799Z,1.93
2022-10-06T14:04:43.802Z,2.33
2022-10-06T14:07:13.256Z,2.30
2022-10-06T14:09:43.577Z,2.10
2022-10-06T14:12:14.053Z,2.03
2022-10-06T14:14:47.084Z,2.27
2022-10-06T14:17:22.438Z,1.90
2022-10-06T14:19:50.918Z,2.13
2022-10-06T14:22:32.669Z,2.03
2022-10-06T14:25:02.303Z,1.73
2022-10-06T14:27:30.285Z,2.20
2022-10-06T14:29:58.611Z,2.00
2022-10-06T14:32:26.912Z,2.40
2022-10-06T14:34:54.971Z,2.07
2022-10-06T14:37:22.955Z,1.93
2022-10-06T14:39:51.915Z,1.97
2022-10-06T14:42:24.557Z,1.67
2022-10-06T14:44:52.565Z,1.67
2022-10-06T14:47:20.557Z,4.60
2022-10-06T14:49:48.802Z,1.67
2022-10-06T14:52:16.845Z,1.67
2022-10-06T14:54:44.830Z,1.97
2022-10-06T14:57:13.508Z,1.90
2022-10-06T14:59:42.986Z,2.17
2022-10-06T15:02:11.360Z,1.73
2022-10-06T15:04:39.336Z,2.30
2022-10-06T15:07:24.825Z,1.83
2022-10-06T15:09:52.801Z,1.90
2022-10-06T15:12:20.893Z,1.83
2022-10-06T15:14:50.323Z,1.33
2022-10-06T15:17:18.304Z,1.50
2022-10-06T15:19:46.334Z,1.70
2022-10-06T15:22:14.312Z,1.57
2022-10-06T15:24:43.329Z,2.73
2022-10-06T15:27:28.790Z,2.33
2022-10-06T15:29:58.303Z,1.60
2022-10-06T15:32:26.332Z,1.60
2022-10-06T15:34:55.404Z,1.43
2022-10-06T15:37:23.387Z,1.73
2022-10-06T15:39:52.296Z,1.80
2022-10-06T15:42:21.756Z,1.40
2022-10-06T15:44:50.112Z,1.80
2022-10-06T15:47:19.582Z,1.63
2022-10-06T15:49:49.434Z,1.50
2022-10-06T15:52:17.678Z,1.67
2022-10-06T15:54:46.653Z,1.57
2022-10-06T15:57:20.307Z,1.90
2022-10-06T15:59:49.226Z,2.53
2022-10-06T16:02:18.146Z,1.70
2022-10-06T16:05:10.447Z,1.87
2022-10-06T16:07:38.545Z,1.70
2022-10-06T16:10:07.075Z,1.70
2022-10-06T16:12:35.244Z,1.63
2022-10-06T16:15:03.288Z,1.37
2022-10-06T16:17:31.281Z,1.80
2022-10-06T16:20:00.798Z,1.90
2022-10-06T16:22:28.826Z,1.73
2022-10-06T16:24:56.901Z,1.80
2022-10-06T16:27:25.935Z,1.87
2022-10-06T16:29:56.149Z,1.70
2022-10-06T16:32:24.319Z,1.70
2022-10-06T16:34:52.458Z,1.63
2022-10-06T16:37:21.949Z,2.00
2022-10-06T16:39:50.079Z,1.73
2022-10-06T16:42:18.222Z,1.50
2022-10-06T16:44:46.367Z,1.87
2022-10-06T16:47:14.558Z,1.80
2022-10-06T16:49:42.686Z,1.57
2022-10-06T16:52:10.785Z,2.00
2022-10-06T16:54:40.373Z,1.93
2022-10-06T16:57:08.385Z,1.43
2022-10-06T16:59:36.385Z,2.23
2022-10-06T17:02:04.436Z,1.50
2022-10-06T17:04:32.473Z,1.50
2022-10-06T17:07:00.468Z,2.00
2022-10-06T17:09:29.191Z,1.30
2022-10-06T17:11:59.116Z,1.40
2022-10-06T17:14:27.751Z,1.80
2022-10-06T17:16:56.095Z,1.50
2022-10-06T17:19:25.515Z,1.50
2022-10-06T17:21:58.553Z,1.30
2022-10-06T17:24:28.638Z,2.83
2022-10-06T17:26:59.237Z,2.00
2022-10-06T17:29:27.639Z,2.50
2022-10-06T17:32:00.200Z,1.50
2022-10-06T17:34:33.442Z,1.33
2022-10-06T17:37:02.241Z,1.30
2022-10-06T17:39:30.296Z,1.47
2022-10-06T17:41:59.690Z,1.47
2022-10-06T17:44:28.955Z,1.70
2022-10-06T17:46:57.736Z,1.43
2022-10-06T17:49:26.135Z,1.47
2022-10-06T17:51:54.854Z,1.50
2022-10-06T17:54:23.700Z,1.50
2022-10-06T17:56:52.622Z,1.60
2022-10-06T17:59:23.008Z,1.80
2022-10-06T18:01:52.252Z,1.53
2022-10-06T18:04:20.398Z,1.67
2022-10-06T18:06:49.058Z,2.30
2022-10-06T18:09:17.445Z,1.33
2022-10-06T18:11:48.207Z,1.40
2022-10-06T18:14:16.828Z,1.50
2022-10-06T18:16:48.236Z,1.60
2022-10-06T18:19:20.398Z,1.10
2022-10-06T18:21:48.940Z,1.10
2022-10-06T18:24:18.117Z,1.30
2022-10-06T18:26:48.340Z,1.43
2022-10-06T18:29:16.809Z,1.40
2022-10-06T18:31:46.843Z,1.57
2022-10-06T18:35:50.730Z,1.40
2022-10-06T18:37:04.661Z,1.27
2022-10-06T18:39:33.682Z,1.60
2022-10-06T18:42:05.447Z,1.60
2022-10-06T18:44:50.871Z,1.60
2022-10-06T18:47:37.482Z,1.40
2022-10-06T18:50:05.838Z,1.57
2022-10-06T18:52:33.877Z,1.47
2022-10-06T18:55:01.867Z,1.63
2022-10-06T18:57:29.935Z,1.40
2022-10-06T18:59:57.930Z,1.33
2022-10-06T19:02:27.496Z,1.30
2022-10-06T19:04:55.670Z,1.47
2022-10-06T19:07:23.930Z,1.40
2022-10-06T19:09:51.920Z,1.40
2022-10-06T19:12:19.901Z,1.60
2022-10-06T19:14:48.262Z,1.40
2022-10-06T19:17:17.320Z,1.90
2022-10-06T19:19:51.486Z,1.23
2022-10-06T19:22:21.734Z,1.63
2022-10-06T19:24:49.704Z,1.57
2022-10-06T19:27:20.756Z,1.70
2022-10-06T19:29:51.233Z,1.47
2022-10-06T19:32:20.473Z,1.70
2022-10-06T19:34:50.060Z,1.60
2022-10-06T19:37:18.156Z,1.87
2022-10-06T19:39:46.889Z,1.93
2022-10-06T19:42:33.044Z,2.33
2022-10-06T19:45:01.436Z,1.20
2022-10-06T19:47:29.943Z,1.30
2022-10-06T19:50:03.698Z,1.37
2022-10-06T19:52:34.088Z,1.70
2022-10-06T19:55:02.149Z,1.47
2022-10-06T19:57:31.211Z,1.50
2022-10-06T19:59:59.171Z,3.33
2022-10-06T20:02:28.984Z,2.10
2022-10-06T20:04:57.282Z,1.73
2022-10-06T20:07:28.053Z,1.43
2022-10-06T20:09:56.420Z,1.60
2022-10-06T20:12:25.536Z,2.00
2022-10-06T20:14:53.966Z,2.00
2022-10-06T20:17:22.453Z,1.20
2022-10-06T20:19:55.112Z,1.33
2022-10-06T20:22:27.568Z,1.70
2022-10-06T20:24:55.751Z,1.30
2022-10-06T20:27:23.861Z,1.50
2022-10-06T20:29:51.862Z,1.17
2022-10-06T20:32:19.867Z,1.10
2022-10-06T20:34:47.879Z,1.73
2022-10-06T20:37:16.013Z,1.83
2022-10-06T20:40:11.031Z,1.40
2022-10-06T20:42:41.632Z,1.40
2022-10-06T20:45:10.035Z,1.43
2022-10-06T20:47:38.166Z,1.20
2022-10-06T20:50:06.772Z,1.50
2022-10-06T20:52:35.030Z,2.73
2022-10-06T20:55:06.504Z,1.20
2022-10-06T20:57:34.525Z,1.27
2022-10-06T21:00:02.557Z,1.40
2022-10-06T21:02:31.604Z,1.30
2022-10-06T21:05:00.086Z,1.00
2022-10-06T21:07:28.112Z,2.27
2022-10-06T21:09:56.215Z,1.60
2022-10-06T21:12:25.761Z,1.63
2022-10-06T21:14:53.900Z,1.30
2022-10-06T21:17:22.273Z,1.90
2022-10-06T21:19:50.302Z,1.43
2022-10-06T21:22:18.315Z,1.60
2022-10-06T21:24:46.678Z,1.57
2022-10-06T21:27:18.781Z,1.43
2022-10-06T21:29:48.710Z,1.37
2022-10-06T21:32:17.417Z,1.50
2022-10-06T21:34:45.716Z,1.30
2022-10-06T21:37:14.331Z,1.70
2022-10-06T21:39:42.380Z,1.30
2022-10-06T21:42:10.554Z,1.77
2022-10-06T21:44:38.818Z,1.23
2022-10-06T21:47:08.597Z,1.47
2022-10-06T21:49:36.657Z,1.40
2022-10-06T21:52:05.647Z,1.37
2022-10-06T21:54:33.689Z,1.47
2022-10-06T21:57:01.726Z,1.17
2022-10-06T21:59:29.772Z,1.47
2022-10-06T22:01:58.101Z,1.30
2022-10-06T22:04:27.743Z,1.77
2022-10-06T22:06:55.774Z,1.10
2022-10-06T22:09:24.003Z,1.33
2022-10-06T22:11:52.053Z,1.60
2022-10-06T22:14:20.567Z,1.70
2022-10-06T22:16:48.848Z,1.50
2022-10-06T22:19:18.199Z,1.80
2022-10-06T22:21:48.567Z,1.90
2022-10-06T22:24:17.853Z,1.73
2022-10-06T22:26:46.150Z,2.17
2022-10-06T22:29:15.098Z,1.90
2022-10-06T22:31:44.224Z,1.50
2022-10-06T22:34:12.808Z,2.30
2022-10-06T22:36:41.236Z,1.93
2022-10-06T22:39:10.731Z,3.27
2022-10-06T22:41:38.727Z,2.10
2022-10-06T22:44:06.990Z,1.93
2022-10-06T22:46:36.524Z,1.90
2022-10-06T22:49:04.586Z,1.53
2022-10-06T22:51:32.787Z,2.07
2022-10-06T22:54:01.095Z,1.80
2022-10-06T22:56:31.827Z,1.70
2022-10-06T22:59:00.528Z,2.13
2022-10-06T23:01:29.082Z,1.60
2022-10-06T23:03:57.431Z,2.63
2022-10-06T23:06:25.503Z,2.13
2022-10-06T23:08:53.601Z,2.47
2022-10-06T23:11:22.289Z,2.60
2022-10-06T23:13:53.260Z,2.90
2022-10-06T23:16:21.796Z,2.67
2022-10-06T23:18:50.205Z,2.57
2022-10-06T23:21:21.858Z,2.60
2022-10-06T23:23:50.650Z,2.73
2022-10-06T23:26:19.858Z,2.47
2022-10-06T23:28:51.874Z,2.50
2022-10-06T23:31:21.419Z,2.10
2022-10-06T23:33:49.896Z,2.20
2022-10-06T23:36:18.659Z,2.53
2022-10-06T23:38:46.990Z,1.77
2022-10-06T23:41:15.315Z,1.77
2022-10-06T23:43:43.327Z,1.70
2022-10-06T23:46:11.460Z,1.80
2022-10-06T23:48:41.072Z,2.73
2022-10-06T23:51:09.822Z,2.03
2022-10-06T23:53:37.875Z,1.33
2022-10-06T23:56:06.173Z,1.93
2022-10-06T23:58:34.343Z,2.00
